Pos Num Class Team                                 Time     Gap  To 1st   Speed
--- --- ----- ------------------------------ ---------- ------- ------- -------
 1.  49 GS    Marcus Motorsports               2:05.591                  93.733
 2.  55 GS    Hyper Sport                      2:05.739   0.148   0.148  93.623
 3.  99 GS    Automatic Racing                 2:05.821   0.082   0.230  93.561
 4.  09 GS    Automatic Racing                 2:06.145   0.324   0.554  93.321
 5.  42 GS    TRG                              2:06.262   0.117   0.671  93.235
 6.  37 GS    JBS Racing                       2:06.272   0.010   0.681  93.227
 7.  38 GS    BGB Motorsports                  2:06.317   0.045   0.726  93.194
 8.   5 GS    Blackforest Motorsports          2:06.365   0.048   0.774  93.159
 9.  28 GS    Fall-Line Motorsports            2:06.575   0.210   0.984  93.004
10.  59 GS    Rehagen Racing                   2:06.712   0.137   1.121  92.904
11. 137 GS    JBS Motorsports                  2:06.731   0.019   1.140  92.890
12.  90 GS    Automatic Racing                 2:06.752   0.021   1.161  92.874
13.  40 GS    TRG                              2:06.809   0.057   1.218  92.833
14.  39 GS    TRG                              2:06.907   0.098   1.316  92.761
15.  91 GS    Automatic Racing                 2:06.962   0.055   1.371  92.721
16.  87 GS    Marcus Motorsports               2:07.046   0.084   1.455  92.659
17.  83 GS    BGB Motorsports                  2:07.061   0.015   1.470  92.648
18.  97 GS    Turner Motorsport                2:07.186   0.125   1.595  92.557
19.  41 GS    TRG                              2:07.197   0.011   1.606  92.549
20.   4 GS    Blackforest Motorsports          2:07.329   0.132   1.738  92.453
21.  88 GS    Ranger Sports Racing             2:07.492   0.163   1.901  92.335
22.  80 GS    Kinetic Motorsports              2:07.565   0.073   1.974  92.282
23.  79 GS    Kinetic Motorsports              2:07.662   0.097   2.071  92.212
24.  20 GS    Horsepower/Wright Motorsports    2:07.713   0.051   2.122  92.175
25.  54 GS    Hyper Sport                      2:08.319   0.606   2.728  91.740
26.  72 GS    BGB Motorsports                  2:08.334   0.015   2.743  91.729
27.  46 GS    Fall-Line Motorsports            2:08.639   0.305   3.048  91.512
28.  52 GS    Rehagen Racing                   2:08.714   0.075   3.123  91.459
29.   2 GS    Blackforest Motorsports          2:09.254   0.540   3.663  91.076
30.   3 GS    Blackforest Motorsports          2:09.560   0.306   3.969  90.861
31.  45 GS    Michael Baughman Racing          2:09.658   0.098   4.067  90.793
32.  96 GS    Turner Motorsport                2:10.074   0.416   4.483  90.502
33.  78 GS    Kinetic Motorsports               No Time